Time;durP1;ratioP1;P1;durP2;ratioP2;P2;SDS_P1;SDS_P2;PMS_P1;PMS_P2;Temp;Humidity;BMP_temperature;BMP_pressure;BME280_temperature;BME280_humidity;BME280_pressure;Samples;Min_cycle;Max_cycle;Signal;HPM_P1;HPM_P2
2023/01/03 00:01:42;;;;;;;1.70;1.60;;;;;;;;;;4968419;28;20245;-76
2023/01/03 00:04:07;;;;;;;1.90;1.80;;;;;;;;;;4951149;29;20187;-77
2023/01/03 00:06:35;;;;;;;1.60;1.50;;;;;;;;;;4968030;28;20182;-78
2023/01/03 00:09:02;;;;;;;1.53;1.43;;;;;;;;;;4968198;28;20213;-78
2023/01/03 00:14:13;;;;;;;1.83;1.40;;;;;;;;;;4952664;28;20218;-77
2023/01/03 00:16:38;;;;;;;1.73;1.60;;;;;;;;;;4954006;28;20267;-77
2023/01/03 00:19:05;;;;;;;2.20;1.60;;;;;;;;;;4966168;28;20301;-76
2023/01/03 00:21:30;;;;;;;1.50;1.40;;;;;;;;;;4951588;29;20177;-76
2023/01/03 00:23:55;;;;;;;2.20;1.70;;;;;;;;;;4967796;28;20173;-77
2023/01/03 00:26:20;;;;;;;1.83;1.50;;;;;;;;;;4952255;29;20201;-77
2023/01/03 00:28:45;;;;;;;1.97;1.43;;;;;;;;;;4951731;28;20185;-77
2023/01/03 00:31:11;;;;;;;3.37;1.70;;;;;;;;;;4951538;28;20173;-78
2023/01/03 00:33:37;;;;;;;1.77;1.43;;;;;;;;;;4951487;28;20345;-77
2023/01/03 00:36:03;;;;;;;1.43;1.30;;;;;;;;;;4947479;28;20219;-77
2023/01/03 00:38:28;;;;;;;2.57;1.33;;;;;;;;;;4967671;28;20203;-77
2023/01/03 00:40:53;;;;;;;2.07;1.53;;;;;;;;;;4951471;28;20192;-77
2023/01/03 00:43:28;;;;;;;1.70;1.60;;;;;;;;;;4948908;29;20182;-77
2023/01/03 00:45:53;;;;;;;1.30;1.20;;;;;;;;;;4949257;28;20180;-77
2023/01/03 00:48:18;;;;;;;1.43;1.30;;;;;;;;;;4950653;28;20452;-77
2023/01/03 00:50:44;;;;;;;1.60;1.50;;;;;;;;;;4952902;28;20177;-78
2023/01/03 00:53:09;;;;;;;1.33;1.23;;;;;;;;;;4965188;28;20189;-77
2023/01/03 00:55:34;;;;;;;1.57;1.47;;;;;;;;;;4954820;28;20212;-77
2023/01/03 00:57:59;;;;;;;1.07;1.00;;;;;;;;;;4951663;28;20230;-77
2023/01/03 01:00:24;;;;;;;1.37;1.27;;;;;;;;;;4966736;28;20182;-77
2023/01/03 01:02:52;;;;;;;1.50;1.40;;;;;;;;;;4955793;28;20208;-77
2023/01/03 01:05:17;;;;;;;2.30;1.60;;;;;;;;;;4958486;28;20186;-77
2023/01/03 01:07:42;;;;;;;1.17;1.17;;;;;;;;;;4970178;28;20530;-77
2023/01/03 01:10:07;;;;;;;1.77;1.67;;;;;;;;;;4961982;28;20182;-76
2023/01/03 01:12:33;;;;;;;1.73;1.63;;;;;;;;;;4951037;28;20176;-77
2023/01/03 01:14:58;;;;;;;1.60;1.50;;;;;;;;;;4953512;28;20177;-77
2023/01/03 01:17:23;;;;;;;1.60;1.50;;;;;;;;;;4954385;28;20192;-77
2023/01/03 01:19:48;;;;;;;1.40;1.30;;;;;;;;;;4950777;29;20243;-77
2023/01/03 01:22:13;;;;;;;1.40;1.30;;;;;;;;;;4967413;28;20267;-78
2023/01/03 01:24:39;;;;;;;1.50;1.40;;;;;;;;;;4953423;28;20170;-78
2023/01/03 01:27:04;;;;;;;1.40;1.30;;;;;;;;;;4964491;28;20204;-77
2023/01/03 01:29:29;;;;;;;4.77;1.50;;;;;;;;;;4950030;29;20272;-77
2023/01/03 01:31:55;;;;;;;1.83;1.63;;;;;;;;;;4951006;28;20180;-77
2023/01/03 01:34:20;;;;;;;1.60;1.50;;;;;;;;;;4951691;29;20188;-77
2023/01/03 01:36:45;;;;;;;2.90;1.70;;;;;;;;;;4957026;28;20201;-77
2023/01/03 01:39:12;;;;;;;1.87;1.63;;;;;;;;;;4966330;28;20287;-78
2023/01/03 01:44:40;;;;;;;2.27;1.90;;;;;;;;;;4941530;29;20202;-78
2023/01/03 01:47:24;;;;;;;2.00;1.80;;;;;;;;;;4953270;28;20178;-78
2023/01/03 01:49:53;;;;;;;2.00;1.70;;;;;;;;;;4954834;28;20178;-78
2023/01/03 01:52:19;;;;;;;2.20;2.00;;;;;;;;;;4966282;28;20192;-77
2023/01/03 01:54:44;;;;;;;1.80;1.70;;;;;;;;;;4950570;28;20195;-77
2023/01/03 01:57:13;;;;;;;3.43;1.90;;;;;;;;;;4951020;28;20189;-77
2023/01/03 01:59:38;;;;;;;2.30;1.83;;;;;;;;;;4954510;28;20200;-76
2023/01/03 02:02:04;;;;;;;1.87;1.77;;;;;;;;;;4950881;28;20192;-78
2023/01/03 02:04:31;;;;;;;2.00;1.70;;;;;;;;;;4953110;28;20174;-77
2023/01/03 02:06:57;;;;;;;1.50;1.40;;;;;;;;;;4955989;28;20231;-77
2023/01/03 02:09:22;;;;;;;1.40;1.30;;;;;;;;;;4965084;28;20192;-77
2023/01/03 02:14:51;;;;;;;2.13;1.90;;;;;;;;;;4947779;28;20205;-78
2023/01/03 02:17:32;;;;;;;3.27;2.00;;;;;;;;;;4952689;28;20229;-78
2023/01/03 02:20:10;;;;;;;3.30;2.20;;;;;;;;;;4949588;28;20205;-77
2023/01/03 02:23:00;;;;;;;2.67;2.30;;;;;;;;;;4953533;28;20180;-77
2023/01/03 02:25:28;;;;;;;2.20;1.87;;;;;;;;;;4951017;28;20296;-77
2023/01/03 02:28:12;;;;;;;2.57;2.30;;;;;;;;;;4948150;29;20473;-77
2023/01/03 02:31:07;;;;;;;3.40;2.23;;;;;;;;;;4962094;28;20177;-76
2023/01/03 02:33:40;;;;;;;2.30;2.10;;;;;;;;;;4899098;29;20186;-77
2023/01/03 02:36:06;;;;;;;3.30;2.20;;;;;;;;;;4955158;28;20202;-78
2023/01/03 02:38:36;;;;;;;2.83;2.07;;;;;;;;;;4950260;28;20197;-77
2023/01/03 02:41:01;;;;;;;2.30;2.10;;;;;;;;;;4954785;28;20235;-77
2023/01/03 02:43:29;;;;;;;2.40;2.20;;;;;;;;;;4946696;29;20259;-77
2023/01/03 02:46:03;;;;;;;2.27;2.03;;;;;;;;;;4955607;28;20266;-78
2023/01/03 02:48:31;;;;;;;2.80;2.47;;;;;;;;;;4951753;28;20231;-78
2023/01/03 02:50:58;;;;;;;3.53;1.90;;;;;;;;;;4950081;29;20177;-78
2023/01/03 02:53:26;;;;;;;3.13;2.00;;;;;;;;;;4946163;29;20227;-77
2023/01/03 02:55:53;;;;;;;4.03;2.23;;;;;;;;;;4946487;29;20248;-77
2023/01/03 02:58:21;;;;;;;2.50;2.30;;;;;;;;;;4948354;28;20231;-77
2023/01/03 03:00:48;;;;;;;2.60;2.20;;;;;;;;;;4946524;28;20184;-77
2023/01/03 03:03:15;;;;;;;3.40;2.47;;;;;;;;;;4947881;28;20288;-77
2023/01/03 03:05:51;;;;;;;2.50;2.30;;;;;;;;;;4966739;28;20235;-77
2023/01/03 03:08:16;;;;;;;2.37;2.17;;;;;;;;;;4949476;28;20239;-77
2023/01/03 03:13:42;;;;;;;2.43;1.83;;;;;;;;;;4956301;28;20197;-78
2023/01/03 03:16:10;;;;;;;2.70;2.20;;;;;;;;;;4971187;28;20173;-77
2023/01/03 03:18:44;;;;;;;3.60;1.93;;;;;;;;;;4961390;28;20317;-78
2023/01/03 03:26:45;;;;;;;3.60;1.90;;;;;;;;;;4954029;29;20274;-77
2023/01/03 03:29:14;;;;;;;3.73;2.40;;;;;;;;;;4951452;28;20195;-77
2023/01/03 03:31:41;;;;;;;2.87;2.50;;;;;;;;;;4956218;28;20202;-77
2023/01/03 03:34:28;;;;;;;4.97;2.27;;;;;;;;;;4958502;28;20215;-77
2023/01/03 03:36:55;;;;;;;1.93;1.83;;;;;;;;;;4970241;28;20248;-77
2023/01/03 03:45:42;;;;;;;2.30;2.10;;;;;;;;;;4888643;29;20221;-77
2023/01/03 03:48:14;;;;;;;2.20;2.00;;;;;;;;;;4894805;29;20190;-78
2023/01/03 03:50:44;;;;;;;2.27;2.07;;;;;;;;;;4879992;29;20215;-77
2023/01/03 03:53:10;;;;;;;2.90;1.90;;;;;;;;;;4893959;29;20459;-77
2023/01/03 03:55:38;;;;;;;2.27;2.07;;;;;;;;;;4889675;29;20181;-78
2023/01/03 03:58:08;;;;;;;2.10;1.90;;;;;;;;;;4892131;29;20221;-77
2023/01/03 04:00:37;;;;;;;2.00;1.83;;;;;;;;;;4876214;29;20253;-77
2023/01/03 04:03:03;;;;;;;3.93;2.03;;;;;;;;;;4879009;29;20190;-77
2023/01/03 04:05:30;;;;;;;2.43;2.23;;;;;;;;;;4893911;29;20186;-77
2023/01/03 04:07:56;;;;;;;4.83;2.57;;;;;;;;;;4878526;29;20231;-77
2023/01/03 04:10:22;;;;;;;4.17;2.77;;;;;;;;;;4894647;29;20181;-77
2023/01/03 04:12:48;;;;;;;2.77;2.43;;;;;;;;;;4879213;29;20205;-77
2023/01/03 04:15:14;;;;;;;4.13;2.73;;;;;;;;;;4874041;29;20187;-77
2023/01/03 04:17:39;;;;;;;3.07;1.97;;;;;;;;;;4894162;29;20197;-77
2023/01/03 04:20:04;;;;;;;2.83;2.53;;;;;;;;;;4910359;29;20229;-77
2023/01/03 04:22:29;;;;;;;3.70;2.13;;;;;;;;;;4916891;29;20183;-77
2023/01/03 04:24:55;;;;;;;2.63;1.83;;;;;;;;;;4913559;29;20189;-77
2023/01/03 04:27:20;;;;;;;2.30;2.10;;;;;;;;;;4914753;29;20174;-77
2023/01/03 04:29:45;;;;;;;2.50;1.57;;;;;;;;;;4913003;29;20193;-77
2023/01/03 04:32:10;;;;;;;1.97;1.83;;;;;;;;;;4913710;29;20182;-77
2023/01/03 04:34:35;;;;;;;2.20;2.00;;;;;;;;;;4910474;29;20226;-77
2023/01/03 04:37:01;;;;;;;2.00;1.90;;;;;;;;;;4915037;29;20216;-77
2023/01/03 04:39:26;;;;;;;1.70;1.60;;;;;;;;;;4913058;29;20196;-77
2023/01/03 04:41:51;;;;;;;2.60;2.10;;;;;;;;;;4926699;29;20178;-77
2023/01/03 04:44:16;;;;;;;1.60;1.50;;;;;;;;;;4929744;29;20178;-77
2023/01/03 04:46:41;;;;;;;3.37;1.60;;;;;;;;;;4928357;29;20273;-77
2023/01/03 04:49:08;;;;;;;2.20;1.73;;;;;;;;;;4929169;29;20249;-77
2023/01/03 04:51:33;;;;;;;2.33;1.50;;;;;;;;;;4914103;29;20191;-77
2023/01/03 04:53:58;;;;;;;3.70;1.50;;;;;;;;;;4918825;29;20176;-77
2023/01/03 04:56:24;;;;;;;2.27;1.80;;;;;;;;;;4919539;29;20189;-77
2023/01/03 04:58:50;;;;;;;1.67;1.57;;;;;;;;;;4920954;29;20214;-77
2023/01/03 05:01:15;;;;;;;1.97;1.67;;;;;;;;;;4915250;29;20193;-77
2023/01/03 05:03:40;;;;;;;1.70;1.60;;;;;;;;;;4915747;29;20181;-77
2023/01/03 05:06:06;;;;;;;3.77;1.80;;;;;;;;;;4913886;29;20184;-77
2023/01/03 05:08:32;;;;;;;1.77;1.67;;;;;;;;;;4945580;28;20228;-77
2023/01/03 05:10:57;;;;;;;1.70;1.60;;;;;;;;;;4951111;29;20211;-77
2023/01/03 05:13:22;;;;;;;2.53;1.70;;;;;;;;;;4957130;28;20242;-78
2023/01/03 05:15:48;;;;;;;1.50;1.40;;;;;;;;;;4955860;28;20184;-78
2023/01/03 05:18:13;;;;;;;2.73;1.70;;;;;;;;;;4953661;28;20223;-77
2023/01/03 05:26:08;;;;;;;1.43;1.33;;;;;;;;;;4958844;28;20496;-77
2023/01/03 05:28:34;;;;;;;2.40;1.90;;;;;;;;;;4958029;28;20228;-76
2023/01/03 05:30:59;;;;;;;1.60;1.50;;;;;;;;;;4958072;28;20190;-76
2023/01/03 05:33:24;;;;;;;1.70;1.60;;;;;;;;;;4951528;28;20189;-78
2023/01/03 05:35:50;;;;;;;1.63;1.33;;;;;;;;;;4950930;28;20202;-77
2023/01/03 05:38:15;;;;;;;1.77;1.40;;;;;;;;;;4964146;28;20241;-76
2023/01/03 05:40:40;;;;;;;3.00;1.60;;;;;;;;;;4963461;28;20274;-77
2023/01/03 05:43:06;;;;;;;2.60;1.80;;;;;;;;;;4959806;28;20275;-78
2023/01/03 05:45:33;;;;;;;1.77;1.40;;;;;;;;;;4954976;28;20188;-77
2023/01/03 05:47:58;;;;;;;1.90;1.70;;;;;;;;;;4950681;29;20389;-78
2023/01/03 05:50:24;;;;;;;2.47;2.03;;;;;;;;;;4949204;29;20187;-77
2023/01/03 05:52:49;;;;;;;2.57;1.90;;;;;;;;;;4950618;28;20291;-77
2023/01/03 05:55:15;;;;;;;1.63;1.53;;;;;;;;;;4956679;28;20268;-76
2023/01/03 05:57:40;;;;;;;2.80;2.37;;;;;;;;;;4951838;28;20171;-77
2023/01/03 06:00:05;;;;;;;2.07;1.93;;;;;;;;;;4956766;28;20217;-77
2023/01/03 06:02:30;;;;;;;2.60;1.90;;;;;;;;;;4964420;28;20264;-77
2023/01/03 06:04:56;;;;;;;1.87;1.70;;;;;;;;;;4954380;28;20188;-77
2023/01/03 06:07:21;;;;;;;1.67;1.57;;;;;;;;;;4946344;29;20323;-77
2023/01/03 06:09:46;;;;;;;19.17;18.10;;;;;;;;;;4949237;28;20215;-77
2023/01/03 06:12:11;;;;;;;3.27;2.53;;;;;;;;;;4954527;28;20184;-77
2023/01/03 06:14:36;;;;;;;1.70;1.60;;;;;;;;;;4953600;28;20202;-77
2023/01/03 06:19:46;;;;;;;1.73;1.63;;;;;;;;;;4957665;28;20232;-77
2023/01/03 06:22:11;;;;;;;2.03;1.80;;;;;;;;;;4954586;28;20177;-78
2023/01/03 06:24:36;;;;;;;3.10;2.10;;;;;;;;;;4953721;28;20191;-77
2023/01/03 06:27:01;;;;;;;4.07;2.30;;;;;;;;;;4964358;28;20183;-77
2023/01/03 06:29:26;;;;;;;1.97;1.87;;;;;;;;;;4956227;28;20203;-77
2023/01/03 06:31:51;;;;;;;2.07;1.87;;;;;;;;;;4956518;28;20177;-77
2023/01/03 06:34:17;;;;;;;4.97;3.80;;;;;;;;;;4953945;28;20187;-77
2023/01/03 06:36:42;;;;;;;3.60;2.70;;;;;;;;;;4955941;28;20209;-77
2023/01/03 06:39:07;;;;;;;2.73;1.90;;;;;;;;;;4949704;29;20247;-76
2023/01/03 06:41:33;;;;;;;1.60;1.50;;;;;;;;;;4964426;28;20181;-77
2023/01/03 06:43:58;;;;;;;2.37;1.90;;;;;;;;;;4964571;28;20170;-76
2023/01/03 06:54:42;;;;;;;1.73;1.63;;;;;;;;;;4957764;28;20177;-77
2023/01/03 06:57:07;;;;;;;2.57;1.67;;;;;;;;;;4953797;29;20182;-76
2023/01/03 06:59:32;;;;;;;1.60;1.50;;;;;;;;;;4966842;28;20410;-77
2023/01/03 07:01:57;;;;;;;2.40;1.50;;;;;;;;;;4956038;28;20190;-76
2023/01/03 07:04:23;;;;;;;1.53;1.40;;;;;;;;;;4954016;28;20192;-77
2023/01/03 07:06:49;;;;;;;2.17;1.40;;;;;;;;;;4964352;28;20180;-77
2023/01/03 07:09:14;;;;;;;2.40;2.20;;;;;;;;;;4952458;29;20196;-77
2023/01/03 07:11:40;;;;;;;1.70;1.60;;;;;;;;;;4956424;28;20168;-76
2023/01/03 07:14:06;;;;;;;2.00;1.80;;;;;;;;;;4959628;28;20232;-76
2023/01/03 07:16:33;;;;;;;3.57;1.80;;;;;;;;;;4957038;28;20203;-77
2023/01/03 07:18:58;;;;;;;4.93;2.83;;;;;;;;;;4958552;28;20240;-76
2023/01/03 07:21:24;;;;;;;4.97;3.40;;;;;;;;;;4954042;29;20183;-77
2023/01/03 07:23:54;;;;;;;5.13;3.97;;;;;;;;;;4968647;28;20182;-77
2023/01/03 07:26:19;;;;;;;4.53;3.10;;;;;;;;;;4954446;28;20176;-77
2023/01/03 07:28:45;;;;;;;4.00;3.27;;;;;;;;;;4958790;28;20199;-78
2023/01/03 07:31:10;;;;;;;3.33;2.30;;;;;;;;;;4953173;29;20182;-77
2023/01/03 07:33:37;;;;;;;3.20;2.50;;;;;;;;;;4954424;28;20198;-76
2023/01/03 07:36:04;;;;;;;3.23;2.93;;;;;;;;;;4976770;28;20234;-78
2023/01/03 07:38:29;;;;;;;2.30;2.17;;;;;;;;;;4952392;29;20200;-77
2023/01/03 07:40:56;;;;;;;3.20;2.70;;;;;;;;;;4968193;28;20192;-76
2023/01/03 07:46:20;;;;;;;3.67;3.37;;;;;;;;;;4942606;28;20208;-78
2023/01/03 07:48:53;;;;;;;6.10;5.60;;;;;;;;;;4971380;28;20187;-77
2023/01/03 07:51:19;;;;;;;9.20;8.40;;;;;;;;;;4952901;28;20280;-77
2023/01/03 07:53:45;;;;;;;5.40;4.00;;;;;;;;;;4957655;28;20192;-76
2023/01/03 07:56:14;;;;;;;4.10;3.80;;;;;;;;;;4954751;28;20193;-77
2023/01/03 07:58:40;;;;;;;2.90;2.70;;;;;;;;;;4952724;28;20280;-76
2023/01/03 08:01:06;;;;;;;4.30;2.40;;;;;;;;;;4953304;28;20242;-77
2023/01/03 08:03:32;;;;;;;2.80;2.40;;;;;;;;;;4957898;28;20215;-76
2023/01/03 08:06:02;;;;;;;3.17;1.70;;;;;;;;;;4953427;28;20205;-77
2023/01/03 08:08:27;;;;;;;2.10;1.73;;;;;;;;;;4949931;28;20259;-77
2023/01/03 08:13:36;;;;;;;1.67;1.53;;;;;;;;;;4954093;28;20372;-77
2023/01/03 08:16:01;;;;;;;3.70;1.63;;;;;;;;;;4954865;28;20371;-77
2023/01/03 08:18:27;;;;;;;2.10;1.63;;;;;;;;;;4951921;29;20200;-77
2023/01/03 08:20:54;;;;;;;1.27;1.17;;;;;;;;;;4955529;28;20192;-78
2023/01/03 08:23:23;;;;;;;2.50;1.37;;;;;;;;;;4951287;28;20263;-77
2023/01/03 08:25:48;;;;;;;1.50;1.40;;;;;;;;;;4953416;28;20261;-77
2023/01/03 08:28:13;;;;;;;2.80;1.17;;;;;;;;;;4949772;28;20285;-77
2023/01/03 08:30:44;;;;;;;1.10;1.10;;;;;;;;;;4952921;28;20177;-78
2023/01/03 08:33:10;;;;;;;1.40;1.27;;;;;;;;;;4952717;28;20196;-77
2023/01/03 08:35:36;;;;;;;2.13;1.07;;;;;;;;;;4967293;28;20264;-77
2023/01/03 08:38:03;;;;;;;1.20;1.10;;;;;;;;;;4951674;29;20182;-77
2023/01/03 08:40:29;;;;;;;1.30;1.20;;;;;;;;;;4954463;28;20194;-76
2023/01/03 08:42:54;;;;;;;1.43;1.00;;;;;;;;;;4956055;28;20256;-77
2023/01/03 08:45:20;;;;;;;1.27;0.97;;;;;;;;;;4958330;28;20272;-77
2023/01/03 08:47:46;;;;;;;2.03;1.07;;;;;;;;;;4954352;28;20172;-77
2023/01/03 08:50:11;;;;;;;1.27;1.20;;;;;;;;;;4961622;28;20186;-78
2023/01/03 08:52:36;;;;;;;2.83;1.00;;;;;;;;;;4958551;28;20177;-77
2023/01/03 08:55:02;;;;;;;5.03;1.20;;;;;;;;;;4967273;28;20184;-77
2023/01/03 08:57:28;;;;;;;1.57;1.20;;;;;;;;;;4962526;28;20247;-77
2023/01/03 08:59:53;;;;;;;1.33;1.00;;;;;;;;;;4955540;28;20211;-77
2023/01/03 09:02:18;;;;;;;1.70;1.33;;;;;;;;;;4966544;28;20189;-77
2023/01/03 09:04:43;;;;;;;2.60;1.30;;;;;;;;;;4952333;28;20195;-77
2023/01/03 09:07:08;;;;;;;1.40;1.20;;;;;;;;;;4956570;28;20239;-77
2023/01/03 09:09:33;;;;;;;1.60;1.30;;;;;;;;;;4951052;28;20207;-77
2023/01/03 09:11:59;;;;;;;2.97;1.30;;;;;;;;;;4952378;28;20206;-77
2023/01/03 09:14:24;;;;;;;1.87;1.40;;;;;;;;;;4955879;28;20211;-77
2023/01/03 09:16:49;;;;;;;3.23;1.37;;;;;;;;;;4951209;29;20294;-76
2023/01/03 09:19:14;;;;;;;4.70;1.60;;;;;;;;;;4950367;29;20215;-77
2023/01/03 09:21:40;;;;;;;2.53;1.63;;;;;;;;;;4956122;28;20282;-77
2023/01/03 09:24:05;;;;;;;1.47;1.37;;;;;;;;;;4949775;28;20175;-77
2023/01/03 09:26:30;;;;;;;2.47;2.00;;;;;;;;;;4950669;29;20181;-76
2023/01/03 09:28:55;;;;;;;2.00;1.40;;;;;;;;;;4956838;28;20181;-77
2023/01/03 09:31:21;;;;;;;2.73;1.90;;;;;;;;;;4965319;28;20274;-77
2023/01/03 09:33:52;;;;;;;1.57;1.33;;;;;;;;;;5105467;27;20569;-78
2023/01/03 09:36:17;;;;;;;1.10;1.10;;;;;;;;;;5080864;28;20205;-79
2023/01/03 09:38:42;;;;;;;1.20;1.10;;;;;;;;;;5082542;28;20237;-78
2023/01/03 09:41:12;;;;;;;1.93;1.60;;;;;;;;;;5086575;28;20181;-77
2023/01/03 09:43:39;;;;;;;1.40;1.23;;;;;;;;;;5084601;28;20173;-77
2023/01/03 09:46:05;;;;;;;1.57;1.07;;;;;;;;;;5083860;28;20182;-78
2023/01/03 09:48:36;;;;;;;1.40;1.30;;;;;;;;;;5087442;28;20204;-77
2023/01/03 09:51:01;;;;;;;1.40;1.30;;;;;;;;;;5088802;28;20212;-78
2023/01/03 10:04:53;;;;;;;2.40;1.73;;;;;;;;;;5084235;28;20190;-77
2023/01/03 10:07:34;;;;;;;2.83;1.60;;;;;;;;;;5087923;28;20179;-77
2023/01/03 10:10:18;;;;;;;6.03;1.63;;;;;;;;;;5080800;28;20953;-77
2023/01/03 10:12:57;;;;;;;1.83;1.30;;;;;;;;;;5082875;28;20210;-78
2023/01/03 10:15:41;;;;;;;1.20;1.10;;;;;;;;;;5084459;28;20269;-77
2023/01/03 10:18:09;;;;;;;2.23;1.17;;;;;;;;;;5083163;28;20177;-77
2023/01/03 10:20:44;;;;;;;1.57;1.47;;;;;;;;;;5082929;28;20196;-77
2023/01/03 10:23:10;;;;;;;1.73;1.50;;;;;;;;;;5096349;28;20210;-78
2023/01/03 10:25:36;;;;;;;2.27;1.37;;;;;;;;;;5085700;28;20183;-77
2023/01/03 10:28:08;;;;;;;4.27;1.30;;;;;;;;;;5086549;28;20247;-78
2023/01/03 10:30:49;;;;;;;2.20;1.10;;;;;;;;;;5087934;28;20183;-77
2023/01/03 10:33:18;;;;;;;1.10;1.00;;;;;;;;;;5082574;28;20223;-77
2023/01/03 10:35:43;;;;;;;1.37;1.00;;;;;;;;;;5087501;28;20198;-77
2023/01/03 10:38:08;;;;;;;1.53;0.80;;;;;;;;;;5086369;28;20170;-77
2023/01/03 10:40:33;;;;;;;1.40;1.10;;;;;;;;;;5089234;28;20167;-78
2023/01/03 10:43:05;;;;;;;1.63;1.20;;;;;;;;;;5089526;28;20283;-79
2023/01/03 10:45:33;;;;;;;1.73;1.00;;;;;;;;;;5065579;28;20206;-77
2023/01/03 10:47:59;;;;;;;1.20;0.80;;;;;;;;;;5069046;28;20188;-77
2023/01/03 10:50:26;;;;;;;0.80;0.70;;;;;;;;;;5076055;28;20392;-78
2023/01/03 10:53:04;;;;;;;0.80;0.80;;;;;;;;;;5074301;28;20201;-78
2023/01/03 10:55:32;;;;;;;1.43;0.70;;;;;;;;;;5076602;28;20168;-77
2023/01/03 10:57:59;;;;;;;1.17;0.80;;;;;;;;;;5077875;28;20180;-77
2023/01/03 11:00:27;;;;;;;2.90;1.20;;;;;;;;;;5070292;28;20248;-78
2023/01/03 11:02:52;;;;;;;0.70;0.70;;;;;;;;;;5069175;28;20189;-77
2023/01/03 11:05:19;;;;;;;2.40;0.80;;;;;;;;;;5072287;28;20183;-79
2023/01/03 11:07:50;;;;;;;1.43;0.83;;;;;;;;;;5066931;28;20189;-77
2023/01/03 11:10:16;;;;;;;1.87;0.57;;;;;;;;;;5068490;28;20183;-78
2023/01/03 11:12:41;;;;;;;1.67;0.60;;;;;;;;;;5085553;28;20255;-78
2023/01/03 11:15:17;;;;;;;0.60;0.57;;;;;;;;;;5067108;28;20181;-78
2023/01/03 11:17:53;;;;;;;1.40;0.70;;;;;;;;;;5072246;28;20173;-77
2023/01/03 11:20:18;;;;;;;1.43;0.80;;;;;;;;;;5069994;28;20179;-77
2023/01/03 11:22:47;;;;;;;2.17;0.90;;;;;;;;;;5069199;28;20189;-78
2023/01/03 11:25:27;;;;;;;0.60;0.60;;;;;;;;;;5069932;28;20196;-78
2023/01/03 11:28:05;;;;;;;2.47;0.87;;;;;;;;;;5071734;28;20186;-78
2023/01/03 11:30:34;;;;;;;1.00;0.90;;;;;;;;;;5071229;28;20266;-78
2023/01/03 11:33:06;;;;;;;1.67;1.00;;;;;;;;;;5071287;28;20258;-78
2023/01/03 11:35:34;;;;;;;3.60;0.90;;;;;;;;;;5074424;28;20200;-78
2023/01/03 11:38:16;;;;;;;3.63;1.17;;;;;;;;;;5074854;28;20190;-78
2023/01/03 11:40:48;;;;;;;2.37;0.80;;;;;;;;;;5068178;28;20176;-78
2023/01/03 11:43:13;;;;;;;0.67;0.60;;;;;;;;;;5078141;28;20475;-78
2023/01/03 11:45:57;;;;;;;2.42;1.10;;;;;;;;;;5070090;28;20271;-78
2023/01/03 11:48:27;;;;;;;1.23;0.40;;;;;;;;;;5068080;28;20249;-78
2023/01/03 11:50:53;;;;;;;2.50;1.10;;;;;;;;;;5084243;28;20181;-78
2023/01/03 11:53:44;;;;;;;0.60;0.60;;;;;;;;;;5070982;28;20270;-78
2023/01/03 11:56:09;;;;;;;1.23;0.70;;;;;;;;;;5061108;28;20191;-78
2023/01/03 11:58:40;;;;;;;0.60;0.60;;;;;;;;;;5068752;28;20177;-78
2023/01/03 12:01:06;;;;;;;0.57;0.57;;;;;;;;;;5067110;28;20193;-79
2023/01/03 12:03:40;;;;;;;1.95;0.80;;;;;;;;;;5076839;28;20183;-78
2023/01/03 12:06:12;;;;;;;6.00;1.00;;;;;;;;;;5072112;28;20260;-77
2023/01/03 12:08:42;;;;;;;0.77;0.70;;;;;;;;;;5070033;28;20194;-78
2023/01/03 12:11:07;;;;;;;0.97;0.70;;;;;;;;;;5063192;28;20292;-77
2023/01/03 12:13:45;;;;;;;1.55;0.73;;;;;;;;;;5061611;28;20196;-78
2023/01/03 12:16:12;;;;;;;0.90;0.73;;;;;;;;;;5064583;28;20170;-78
2023/01/03 12:18:40;;;;;;;0.77;0.63;;;;;;;;;;5071333;28;20180;-79
2023/01/03 12:21:11;;;;;;;1.37;0.90;;;;;;;;;;5070306;28;20568;-79
2023/01/03 12:23:38;;;;;;;1.40;0.50;;;;;;;;;;5068937;28;20184;-78
2023/01/03 12:26:05;;;;;;;1.93;1.13;;;;;;;;;;5072400;28;20182;-77
2023/01/03 12:28:36;;;;;;;0.63;0.57;;;;;;;;;;5060725;28;20177;-78
2023/01/03 12:31:11;;;;;;;1.30;0.73;;;;;;;;;;5062989;28;20508;-78
2023/01/03 12:33:48;;;;;;;0.87;0.50;;;;;;;;;;5080779;28;20296;-78
2023/01/03 12:36:32;;;;;;;1.40;0.70;;;;;;;;;;5064203;28;20195;-79
2023/01/03 12:39:01;;;;;;;1.07;0.53;;;;;;;;;;5067689;28;20174;-79
2023/01/03 12:41:30;;;;;;;1.10;0.73;;;;;;;;;;5060056;28;20174;-79
2023/01/03 12:44:02;;;;;;;0.80;0.80;;;;;;;;;;5068096;28;20201;-78
2023/01/03 12:46:32;;;;;;;1.70;1.10;;;;;;;;;;5067879;28;20185;-79
2023/01/03 12:49:00;;;;;;;0.97;0.77;;;;;;;;;;5075202;28;20180;-78
2023/01/03 12:51:26;;;;;;;1.03;0.70;;;;;;;;;;5068589;28;20181;-79
2023/01/03 12:53:55;;;;;;;0.57;0.50;;;;;;;;;;5067783;28;20217;-78
2023/01/03 12:56:25;;;;;;;4.53;0.83;;;;;;;;;;5065604;28;20181;-79
2023/01/03 12:58:51;;;;;;;0.93;0.60;;;;;;;;;;5066379;28;20177;-78
2023/01/03 13:01:36;;;;;;;0.68;0.68;;;;;;;;;;5067847;28;20171;-79
2023/01/03 13:04:07;;;;;;;0.50;0.50;;;;;;;;;;5060248;28;20268;-79
2023/01/03 13:06:35;;;;;;;0.93;0.83;;;;;;;;;;5064463;28;20175;-78
2023/01/03 13:09:05;;;;;;;2.13;0.60;;;;;;;;;;5070472;28;20182;-79
2023/01/03 13:11:36;;;;;;;1.33;0.70;;;;;;;;;;5065511;28;20501;-79
2023/01/03 13:14:03;;;;;;;3.40;1.03;;;;;;;;;;5060080;28;20183;-79
2023/01/03 13:16:34;;;;;;;2.10;0.80;;;;;;;;;;5071352;28;20486;-79
2023/01/03 13:19:18;;;;;;;0.67;0.67;;;;;;;;;;5065716;28;20223;-79
2023/01/03 13:22:01;;;;;;;0.70;0.60;;;;;;;;;;5064228;28;20261;-79
2023/01/03 13:24:40;;;;;;;0.70;0.70;;;;;;;;;;5072826;28;20176;-78
2023/01/03 13:27:18;;;;;;;2.30;0.63;;;;;;;;;;5068017;28;20178;-79
2023/01/03 13:29:49;;;;;;;0.73;0.73;;;;;;;;;;5057120;28;20175;-79
2023/01/03 13:32:15;;;;;;;0.93;0.87;;;;;;;;;;5066049;28;20254;-79
2023/01/03 13:34:40;;;;;;;0.93;0.50;;;;;;;;;;5065732;28;20180;-78
2023/01/03 13:37:05;;;;;;;1.20;0.80;;;;;;;;;;5073475;28;20221;-78
2023/01/03 13:39:49;;;;;;;0.80;0.60;;;;;;;;;;5063010;28;20184;-78
2023/01/03 13:42:32;;;;;;;1.13;0.73;;;;;;;;;;5065271;28;20216;-79
2023/01/03 13:45:21;;;;;;;0.50;0.40;;;;;;;;;;5064104;28;20195;-79
2023/01/03 13:47:47;;;;;;;1.20;0.90;;;;;;;;;;5038503;28;20220;-78
2023/01/03 13:50:36;;;;;;;0.83;0.73;;;;;;;;;;5076512;28;20215;-79
2023/01/03 13:53:10;;;;;;;1.23;0.90;;;;;;;;;;5070499;28;20210;-79
2023/01/03 13:55:36;;;;;;;2.70;0.80;;;;;;;;;;5077920;28;20434;-79
2023/01/03 13:58:03;;;;;;;1.43;0.60;;;;;;;;;;5070196;28;20180;-79
2023/01/03 14:00:28;;;;;;;1.07;1.00;;;;;;;;;;5064837;28;20175;-79
2023/01/03 14:03:06;;;;;;;1.23;0.70;;;;;;;;;;5062787;28;20181;-79
2023/01/03 14:05:43;;;;;;;1.77;0.90;;;;;;;;;;5080574;28;20187;-79
2023/01/03 14:08:21;;;;;;;0.80;0.80;;;;;;;;;;5066499;28;20180;-78
2023/01/03 14:10:55;;;;;;;2.30;1.23;;;;;;;;;;5068108;28;20184;-78
2023/01/03 14:13:29;;;;;;;1.43;0.80;;;;;;;;;;5071844;28;20216;-78
2023/01/03 14:16:10;;;;;;;0.90;0.80;;;;;;;;;;5072940;28;20234;-79
2023/01/03 14:18:37;;;;;;;1.03;0.93;;;;;;;;;;5061094;28;20278;-79
2023/01/03 14:21:03;;;;;;;3.43;1.03;;;;;;;;;;5072160;28;20179;-79
2023/01/03 14:23:28;;;;;;;0.80;0.80;;;;;;;;;;5073134;28;20183;-78
2023/01/03 14:26:02;;;;;;;1.63;0.80;;;;;;;;;;5071322;28;20219;-79
2023/01/03 14:28:30;;;;;;;1.13;0.93;;;;;;;;;;5066887;28;20181;-79
2023/01/03 14:30:56;;;;;;;2.33;1.17;;;;;;;;;;5068874;28;20182;-79
2023/01/03 14:33:23;;;;;;;1.63;1.10;;;;;;;;;;5064807;28;20231;-79
2023/01/03 14:35:49;;;;;;;0.77;0.77;;;;;;;;;;5070891;28;20207;-79
2023/01/03 14:38:25;;;;;;;4.80;1.57;;;;;;;;;;5069488;28;20176;-79
2023/01/03 14:40:51;;;;;;;1.33;1.23;;;;;;;;;;5065909;28;20190;-78
2023/01/03 14:43:16;;;;;;;1.83;1.30;;;;;;;;;;5071245;28;20255;-79
2023/01/03 14:45:41;;;;;;;1.20;1.00;;;;;;;;;;5072893;28;20191;-79
2023/01/03 14:48:06;;;;;;;1.33;1.23;;;;;;;;;;5064115;28;20189;-79
2023/01/03 14:50:35;;;;;;;1.23;0.97;;;;;;;;;;5073873;28;20179;-79
2023/01/03 14:53:01;;;;;;;0.80;0.80;;;;;;;;;;5071889;28;20197;-79
2023/01/03 14:55:27;;;;;;;1.10;1.00;;;;;;;;;;5070825;28;20181;-79
2023/01/03 14:57:53;;;;;;;2.10;1.20;;;;;;;;;;5067356;28;20531;-79
2023/01/03 15:00:18;;;;;;;4.70;1.20;;;;;;;;;;5071291;28;20176;-79
2023/01/03 15:02:44;;;;;;;2.90;1.30;;;;;;;;;;5063933;28;20187;-79
2023/01/03 15:05:30;;;;;;;2.00;1.20;;;;;;;;;;5073152;28;20231;-78
2023/01/03 15:08:08;;;;;;;5.73;1.70;;;;;;;;;;5066940;28;20209;-79
2023/01/03 15:10:40;;;;;;;2.43;1.60;;;;;;;;;;5080201;28;20272;-79
2023/01/03 15:13:13;;;;;;;1.20;1.10;;;;;;;;;;5079000;28;20214;-79
2023/01/03 15:15:38;;;;;;;2.87;1.77;;;;;;;;;;5068482;28;20212;-79
2023/01/03 15:18:05;;;;;;;2.23;1.30;;;;;;;;;;5075851;28;20178;-78
2023/01/03 15:20:30;;;;;;;4.07;1.53;;;;;;;;;;5067694;28;20190;-80
2023/01/03 15:22:55;;;;;;;2.30;1.80;;;;;;;;;;5070691;28;20185;-79
2023/01/03 15:25:40;;;;;;;2.80;2.00;;;;;;;;;;5068047;28;20178;-80
2023/01/03 15:28:24;;;;;;;3.40;2.50;;;;;;;;;;5063774;28;20184;-79
2023/01/03 15:30:50;;;;;;;3.93;3.10;;;;;;;;;;5069596;28;20181;-79
2023/01/03 15:33:18;;;;;;;5.07;4.03;;;;;;;;;;5071874;28;20264;-79
2023/01/03 15:35:43;;;;;;;2.20;2.00;;;;;;;;;;5063973;28;20263;-78
2023/01/03 15:38:16;;;;;;;1.70;1.50;;;;;;;;;;5070665;28;20177;-78
2023/01/03 15:40:42;;;;;;;2.33;2.00;;;;;;;;;;5065691;28;20174;-79
2023/01/03 15:43:20;;;;;;;2.53;1.60;;;;;;;;;;5071204;28;20225;-78
2023/01/03 15:45:51;;;;;;;1.93;1.23;;;;;;;;;;5075267;28;20183;-78
2023/01/03 15:48:18;;;;;;;0.93;0.90;;;;;;;;;;5073758;28;20216;-78